Time;durP1;ratioP1;P1;durP2;ratioP2;P2;SDS_P1;SDS_P2;PMS_P1;PMS_P2;Temp;Humidity;BMP_temperature;BMP_pressure;BME280_temperature;BME280_humidity;BME280_pressure;Samples;Min_cycle;Max_cycle;Signal;HPM_P1;HPM_P2
2023/08/01 00:01:22;;;;;;;4.53;1.73;;;18.30;99.90;;;;;;3993010;29;20291;-87
2023/08/01 00:03:22;;;;;;;5.97;1.80;;;18.30;99.90;;;;;;4023692;29;20178;-88
2023/08/01 00:05:23;;;;;;;5.75;2.33;;;18.20;99.90;;;;;;4007942;29;20391;-90
2023/08/01 00:07:26;;;;;;;6.45;1.80;;;18.20;99.90;;;;;;4008117;29;20186;-88
2023/08/01 00:09:27;;;;;;;3.67;1.70;;;18.20;99.90;;;;;;4009152;29;20294;-88
2023/08/01 00:11:27;;;;;;;8.23;2.10;;;18.10;99.90;;;;;;4008004;29;20191;-90
2023/08/01 00:13:28;;;;;;;6.40;1.98;;;18.00;99.90;;;;;;4007737;29;20518;-91
2023/08/01 00:15:29;;;;;;;8.20;2.20;;;18.00;99.90;;;;;;4007975;29;20687;-88
2023/08/01 00:17:30;;;;;;;6.75;2.10;;;17.90;99.90;;;;;;4009004;29;20191;-87
2023/08/01 00:19:30;;;;;;;6.68;1.98;;;17.90;99.90;;;;;;4008737;29;20202;-88
2023/08/01 00:21:31;;;;;;;10.60;1.90;;;17.80;99.90;;;;;;4008791;29;20557;-89
2023/08/01 00:23:32;;;;;;;7.03;2.15;;;17.80;99.90;;;;;;3992615;29;20195;-88
2023/08/01 00:25:33;;;;;;;7.80;2.25;;;17.80;99.90;;;;;;4007468;29;20689;-88
2023/08/01 00:27:34;;;;;;;7.53;2.10;;;17.80;99.90;;;;;;4008037;29;20199;-89
2023/08/01 00:29:35;;;;;;;7.97;2.05;;;17.70;99.90;;;;;;4022766;29;20684;-89
2023/08/01 00:31:36;;;;;;;6.13;2.22;;;17.60;99.90;;;;;;3992607;29;20204;-88
2023/08/01 00:33:37;;;;;;;5.13;2.20;;;17.40;99.90;;;;;;3992661;29;20195;-89
2023/08/01 00:35:37;;;;;;;11.85;3.03;;;17.40;99.90;;;;;;4007868;29;20187;-89
2023/08/01 00:37:39;;;;;;;8.98;2.28;;;17.60;99.90;;;;;;4022692;29;20190;-89
2023/08/01 00:39:39;;;;;;;6.93;2.50;;;17.60;99.90;;;;;;4007541;29;20703;-88
2023/08/01 00:41:40;;;;;;;5.47;2.30;;;17.60;99.90;;;;;;4022779;29;20190;-88
2023/08/01 00:43:41;;;;;;;10.93;2.67;;;17.50;99.90;;;;;;3992331;29;20210;-91
2023/08/01 00:45:42;;;;;;;12.15;2.35;;;17.60;99.90;;;;;;4022827;29;20221;-90
2023/08/01 00:47:43;;;;;;;8.43;2.60;;;17.60;99.90;;;;;;4007916;29;20190;-90
2023/08/01 00:49:44;;;;;;;7.80;2.97;;;17.60;99.90;;;;;;4007408;29;20677;-90
2023/08/01 00:51:45;;;;;;;9.40;2.80;;;17.90;99.90;;;;;;4022506;29;20187;-87
2023/08/01 00:53:46;;;;;;;5.82;2.50;;;18.10;99.90;;;;;;3991850;29;20238;-87
2023/08/01 00:55:46;;;;;;;6.60;2.60;;;17.90;99.90;;;;;;4007265;29;20744;-89
2023/08/01 00:57:47;;;;;;;7.53;2.35;;;17.60;99.90;;;;;;4007504;29;20191;-90
2023/08/01 00:59:48;;;;;;;8.18;2.90;;;17.60;99.90;;;;;;4022705;29;20224;-88
2023/08/01 01:01:49;;;;;;;8.77;3.17;;;17.70;99.90;;;;;;3992471;29;20195;-88
2023/08/01 01:03:50;;;;;;;6.43;2.72;;;17.70;99.90;;;;;;4007352;29;20195;-89
2023/08/01 01:06:00;;;;;;;15.10;3.28;;;17.80;99.90;;;;;;4007411;29;20286;-88
2023/08/01 01:08:03;;;;;;;17.65;3.75;;;18.00;99.90;;;;;;4007368;29;20199;-90
2023/08/01 01:10:04;;;;;;;9.63;3.05;;;17.90;99.90;;;;;;4007290;29;20221;-91
2023/08/01 01:12:05;;;;;;;14.98;3.60;;;17.90;99.90;;;;;;4007059;29;20641;-90
2023/08/01 01:14:06;;;;;;;10.40;3.22;;;17.90;99.90;;;;;;4007123;29;20191;-88
2023/08/01 01:16:07;;;;;;;8.82;3.55;;;17.80;99.90;;;;;;4007250;29;20530;-90
2023/08/01 01:18:08;;;;;;;12.15;3.80;;;17.90;99.90;;;;;;4007338;29;20191;-89
2023/08/01 01:20:09;;;;;;;13.52;3.55;;;17.90;99.90;;;;;;4007070;29;20219;-90
2023/08/01 01:22:11;;;;;;;8.90;3.50;;;18.00;99.90;;;;;;4007127;29;20224;-90
2023/08/01 01:24:13;;;;;;;10.82;3.78;;;17.70;99.90;;;;;;4007012;29;20667;-90
2023/08/01 01:26:16;;;;;;;12.48;4.03;;;17.80;99.90;;;;;;4006714;29;20219;-87
2023/08/01 01:28:19;;;;;;;11.00;3.72;;;17.70;99.90;;;;;;4007385;29;20179;-90
2023/08/01 01:30:20;;;;;;;10.05;3.90;;;17.80;99.90;;;;;;4007149;29;20248;-90
2023/08/01 01:32:22;;;;;;;10.52;3.55;;;17.90;99.90;;;;;;3991969;29;20611;-88
2023/08/01 01:34:23;;;;;;;11.85;3.80;;;17.90;99.90;;;;;;4006990;29;20245;-90
2023/08/01 01:36:24;;;;;;;12.85;3.92;;;17.70;99.90;;;;;;4007144;29;20191;-88
2023/08/01 01:38:25;;;;;;;13.30;4.10;;;17.60;99.90;;;;;;4007125;29;20190;-88
2023/08/01 01:40:26;;;;;;;9.90;3.90;;;17.70;99.90;;;;;;4006918;29;20211;-89
2023/08/01 01:42:26;;;;;;;9.88;4.10;;;17.60;99.90;;;;;;3992183;29;20207;-88
2023/08/01 01:44:27;;;;;;;6.25;3.60;;;17.70;99.90;;;;;;3992245;29;20187;-89
2023/08/01 01:46:30;;;;;;;17.75;4.32;;;17.60;99.90;;;;;;4006893;29;20211;-88
2023/08/01 01:48:31;;;;;;;12.35;3.90;;;17.70;99.90;;;;;;4006916;29;20190;-89
2023/08/01 01:50:32;;;;;;;13.45;4.18;;;17.80;99.90;;;;;;4006722;29;20214;-90
2023/08/01 01:52:32;;;;;;;11.65;4.07;;;17.90;99.90;;;;;;4007037;29;20189;-88
2023/08/01 01:54:33;;;;;;;9.35;4.05;;;17.90;99.90;;;;;;3991990;29;20312;-89
2023/08/01 01:56:35;;;;;;;11.27;3.92;;;17.90;99.90;;;;;;3992142;29;20175;-90
2023/08/01 01:58:36;;;;;;;12.88;4.40;;;17.90;99.90;;;;;;4006719;29;20187;-89
2023/08/01 02:00:37;;;;;;;9.98;4.32;;;17.70;99.90;;;;;;4006766;29;20553;-90
2023/08/01 02:02:38;;;;;;;11.95;3.90;;;17.70;99.90;;;;;;4022395;29;20174;-90
2023/08/01 02:04:39;;;;;;;11.65;3.90;;;17.80;99.90;;;;;;4008839;29;20187;-91
2023/08/01 02:06:39;;;;;;;13.82;4.45;;;17.70;99.90;;;;;;4009868;29;20255;-90
2023/08/01 02:08:41;;;;;;;12.27;4.25;;;17.80;99.90;;;;;;4009688;29;20183;-88
2023/08/01 02:10:42;;;;;;;15.25;4.72;;;17.80;99.90;;;;;;4024822;29;20187;-90
2023/08/01 02:12:42;;;;;;;13.70;4.55;;;17.60;99.90;;;;;;3994575;29;20198;-90
2023/08/01 02:14:43;;;;;;;15.63;4.72;;;17.50;99.90;;;;;;4024981;29;20182;-89
2023/08/01 02:16:44;;;;;;;11.98;4.50;;;17.20;99.90;;;;;;3994599;29;20190;-90
2023/08/01 02:18:45;;;;;;;11.25;4.57;;;17.30;99.90;;;;;;4025206;29;20213;-90
2023/08/01 02:20:45;;;;;;;12.23;4.65;;;17.40;99.90;;;;;;3994704;29;20188;-90
2023/08/01 02:22:46;;;;;;;9.98;4.57;;;17.40;99.90;;;;;;4024675;29;20182;-90
2023/08/01 02:24:47;;;;;;;16.42;5.18;;;17.40;99.90;;;;;;3994277;29;20608;-89
2023/08/01 02:26:50;;;;;;;13.40;5.20;;;17.40;99.90;;;;;;4024989;29;20202;-90
2023/08/01 02:28:50;;;;;;;19.60;5.47;;;17.50;99.90;;;;;;4009531;29;20187;-90
2023/08/01 02:30:51;;;;;;;11.32;4.55;;;17.50;99.90;;;;;;4009787;29;20189;-90
2023/08/01 02:32:52;;;;;;;19.35;4.85;;;17.50;99.90;;;;;;4024585;29;20274;-88
2023/08/01 02:34:53;;;;;;;15.27;5.10;;;17.60;99.90;;;;;;3994119;29;20180;-89
2023/08/01 02:36:53;;;;;;;15.75;5.80;;;17.50;99.90;;;;;;3994193;29;20196;-88
2023/08/01 02:38:54;;;;;;;17.15;5.82;;;17.60;99.90;;;;;;4009673;29;20179;-88
2023/08/01 02:40:55;;;;;;;17.90;5.05;;;17.50;99.90;;;;;;4009295;29;20275;-89
2023/08/01 02:42:56;;;;;;;16.35;5.00;;;17.30;99.90;;;;;;4010090;29;20732;-90
2023/08/01 02:44:56;;;;;;;17.20;5.90;;;17.30;99.90;;;;;;4009445;29;20206;-88
2023/08/01 02:46:57;;;;;;;19.13;5.43;;;17.50;99.90;;;;;;4009556;29;20198;-89
2023/08/01 02:48:58;;;;;;;21.40;6.00;;;17.50;99.90;;;;;;4009450;29;20569;-89
2023/08/01 02:50:59;;;;;;;18.42;6.47;;;17.50;99.90;;;;;;4009479;29;20545;-88
2023/08/01 02:52:59;;;;;;;19.50;5.70;;;17.30;99.90;;;;;;4024648;29;20211;-89
2023/08/01 02:55:00;;;;;;;15.73;5.45;;;17.20;99.90;;;;;;3994069;29;20187;-88
2023/08/01 02:57:01;;;;;;;22.58;6.07;;;17.10;99.90;;;;;;4024537;29;20186;-89
2023/08/01 02:59:04;;;;;;;24.73;6.47;;;17.10;99.90;;;;;;4009171;29;20602;-89
2023/08/01 03:01:10;;;;;;;17.10;5.45;;;17.20;99.90;;;;;;4009217;29;20183;-88
2023/08/01 03:03:11;;;;;;;20.02;5.95;;;17.40;99.90;;;;;;4009053;29;20183;-88
2023/08/01 03:05:11;;;;;;;17.73;5.50;;;17.20;99.90;;;;;;3993916;29;20598;-88
2023/08/01 03:07:13;;;;;;;12.68;4.95;;;17.00;99.90;;;;;;3993666;29;20192;-90
2023/08/01 03:09:14;;;;;;;17.17;6.05;;;17.00;99.90;;;;;;4008766;29;20267;-88
2023/08/01 03:11:14;;;;;;;18.73;5.55;;;17.00;99.90;;;;;;4024183;29;20189;-90
2023/08/01 03:13:15;;;;;;;20.75;5.50;;;16.90;99.90;;;;;;3993905;29;20188;-89
2023/08/01 03:15:16;;;;;;;12.48;5.07;;;16.90;99.90;;;;;;4023750;29;20186;-90
2023/08/01 03:17:17;;;;;;;23.05;6.13;;;17.00;99.90;;;;;;3993821;29;20199;-89
2023/08/01 03:19:18;;;;;;;19.10;5.25;;;17.20;99.90;;;;;;4024015;29;20238;-89
2023/08/01 03:21:18;;;;;;;30.95;6.00;;;17.20;99.90;;;;;;3993592;29;20184;-90
2023/08/01 03:23:19;;;;;;;18.95;5.28;;;17.20;99.90;;;;;;3993820;29;20712;-88
2023/08/01 03:25:20;;;;;;;15.60;5.88;;;17.20;99.90;;;;;;4024052;29;20302;-88
2023/08/01 03:27:21;;;;;;;19.67;6.00;;;17.20;99.90;;;;;;3993713;29;20235;-88
2023/08/01 03:29:21;;;;;;;22.15;5.57;;;17.20;99.90;;;;;;4008464;29;20298;-89
2023/08/01 03:31:23;;;;;;;16.20;5.40;;;17.10;99.90;;;;;;4009740;29;20549;-88
2023/08/01 03:33:23;;;;;;;19.75;5.85;;;16.80;99.90;;;;;;4008629;29;20194;-89
2023/08/01 03:35:24;;;;;;;20.70;5.32;;;17.00;99.90;;;;;;4008597;29;20179;-90
2023/08/01 03:37:26;;;;;;;22.27;6.18;;;17.00;99.90;;;;;;4008935;29;20189;-89
2023/08/01 03:39:27;;;;;;;18.10;5.13;;;17.10;99.90;;;;;;4008516;29;20289;-90
2023/08/01 03:41:27;;;;;;;16.85;6.30;;;16.90;99.90;;;;;;3993076;29;20187;-88
2023/08/01 03:43:28;;;;;;;13.70;5.55;;;16.90;99.90;;;;;;3993320;29;20215;-90
2023/08/01 03:45:29;;;;;;;17.83;5.63;;;17.00;99.90;;;;;;4008635;29;20650;-89
2023/08/01 03:47:30;;;;;;;12.27;5.05;;;16.90;99.90;;;;;;4008715;29;20183;-88
2023/08/01 03:49:30;;;;;;;20.23;5.78;;;16.80;99.90;;;;;;4008556;29;20199;-89
2023/08/01 03:51:31;;;;;;;22.10;5.47;;;17.00;99.90;;;;;;4008725;29;20262;-89
2023/08/01 03:53:32;;;;;;;19.17;5.95;;;17.20;99.90;;;;;;3993439;29;20192;-90
2023/08/01 03:55:33;;;;;;;22.13;5.85;;;17.30;99.90;;;;;;4023843;29;20182;-89
2023/08/01 03:57:34;;;;;;;18.38;5.70;;;17.20;99.90;;;;;;4023423;29;20269;-88
2023/08/01 03:59:36;;;;;;;20.52;6.03;;;17.10;99.90;;;;;;3992937;29;20214;-90
2023/08/01 04:01:38;;;;;;;19.45;5.55;;;17.20;99.90;;;;;;4023322;29;20191;-89
2023/08/01 04:03:39;;;;;;;32.20;6.47;;;17.20;99.90;;;;;;4023882;29;20229;-89
2023/08/01 04:05:40;;;;;;;17.02;5.45;;;17.20;99.90;;;;;;4008047;29;20229;-89
2023/08/01 04:07:42;;;;;;;15.90;5.63;;;17.30;99.90;;;;;;4008177;29;20657;-87
2023/08/01 04:09:42;;;;;;;21.52;6.15;;;17.40;99.90;;;;;;4008104;29;20211;-88
2023/08/01 04:11:43;;;;;;;16.52;5.28;;;17.30;99.90;;;;;;4007873;29;20281;-88
2023/08/01 04:13:44;;;;;;;23.63;5.63;;;17.20;99.90;;;;;;4007941;29;20280;-88
2023/08/01 04:15:45;;;;;;;20.17;6.30;;;17.10;99.90;;;;;;4008044;29;20195;-90
2023/08/01 04:17:45;;;;;;;17.73;5.88;;;17.10;99.90;;;;;;4009155;29;20256;-90
2023/08/01 04:19:46;;;;;;;20.95;6.18;;;16.90;99.90;;;;;;4007963;29;20214;-88
2023/08/01 04:21:47;;;;;;;20.40;5.63;;;16.90;99.90;;;;;;4023381;29;20285;-90
2023/08/01 04:23:47;;;;;;;18.63;5.60;;;16.90;99.90;;;;;;3993022;29;20254;-87
2023/08/01 04:25:48;;;;;;;16.55;5.22;;;16.80;99.90;;;;;;4022983;29;20433;-90
2023/08/01 04:27:49;;;;;;;19.00;5.93;;;16.80;99.90;;;;;;3992040;29;20244;-89
2023/08/01 04:29:50;;;;;;;20.77;6.07;;;16.90;99.90;;;;;;4023073;29;20272;-88
2023/08/01 04:31:50;;;;;;;21.92;5.90;;;17.00;99.90;;;;;;3993033;29;20226;-89
2023/08/01 04:33:51;;;;;;;23.63;5.93;;;16.80;99.90;;;;;;3992958;29;20711;-89
2023/08/01 04:35:52;;;;;;;14.25;5.40;;;16.90;99.90;;;;;;4007702;29;20198;-88
2023/08/01 04:37:53;;;;;;;17.08;5.88;;;17.00;99.90;;;;;;4007564;29;20179;-89
2023/08/01 04:39:53;;;;;;;20.60;6.03;;;17.00;99.90;;;;;;4007873;29;20211;-89
2023/08/01 04:41:54;;;;;;;17.27;6.10;;;16.90;99.90;;;;;;4007547;29;20183;-90
2023/08/01 04:43:55;;;;;;;21.52;5.20;;;17.00;99.90;;;;;;4007730;29;20247;-89
2023/08/01 04:45:56;;;;;;;16.60;5.80;;;16.90;99.90;;;;;;3992652;29;20238;-89
2023/08/01 04:47:56;;;;;;;27.33;6.40;;;16.90;99.90;;;;;;3992726;29;20581;-87
2023/08/01 04:49:57;;;;;;;17.45;4.90;;;17.00;99.90;;;;;;3992452;29;20635;-87
2023/08/01 04:51:58;;;;;;;21.98;5.32;;;17.00;99.90;;;;;;3992467;29;20192;-88
2023/08/01 04:53:59;;;;;;;20.67;5.88;;;16.90;99.90;;;;;;3992677;29;20195;-87
2023/08/01 04:55:59;;;;;;;15.95;5.25;;;17.00;99.90;;;;;;4007488;29;20224;-89
2023/08/01 04:58:00;;;;;;;17.63;5.25;;;17.10;99.90;;;;;;4007433;29;20222;-88
2023/08/01 05:00:02;;;;;;;25.58;5.47;;;17.00;99.90;;;;;;4007403;29;20219;-89
2023/08/01 05:02:02;;;;;;;14.50;5.47;;;17.10;99.90;;;;;;4007432;29;20186;-88
2023/08/01 05:04:03;;;;;;;15.85;4.82;;;17.20;99.90;;;;;;4007486;29;20195;-89
2023/08/01 05:06:04;;;;;;;18.92;5.50;;;17.20;99.90;;;;;;4007374;29;20219;-88
2023/08/01 05:08:05;;;;;;;20.85;5.82;;;17.20;99.90;;;;;;4007385;29;20187;-88
2023/08/01 05:10:06;;;;;;;15.57;5.13;;;17.10;99.90;;;;;;4007198;29;20940;-87
2023/08/01 05:12:08;;;;;;;20.83;5.30;;;17.10;99.90;;;;;;4007058;29;20187;-90
2023/08/01 05:14:09;;;;;;;16.92;5.63;;;17.10;99.90;;;;;;3992240;29;20238;-87
2023/08/01 05:16:10;;;;;;;16.08;5.15;;;17.00;99.90;;;;;;3992255;29;20215;-88
2023/08/01 05:18:11;;;;;;;16.65;5.10;;;17.10;99.90;;;;;;4006895;29;20584;-89
2023/08/01 05:20:11;;;;;;;16.58;5.10;;;17.20;99.90;;;;;;4006938;29;20238;-88
2023/08/01 05:22:13;;;;;;;14.80;5.28;;;17.30;99.90;;;;;;4006822;29;20768;-89
2023/08/01 05:24:14;;;;;;;20.88;5.43;;;17.40;99.90;;;;;;3992439;29;20186;-88
2023/08/01 05:26:14;;;;;;;21.05;5.45;;;17.60;99.90;;;;;;3992144;29;20227;-87
2023/08/01 05:28:15;;;;;;;16.42;4.78;;;17.70;99.90;;;;;;3992066;29;20195;-88
2023/08/01 05:30:16;;;;;;;18.00;5.30;;;17.90;99.90;;;;;;3992245;29;20203;-89
2023/08/01 05:32:17;;;;;;;14.70;5.25;;;18.00;99.90;;;;;;3992166;29;20196;-87
2023/08/01 05:34:17;;;;;;;15.98;4.72;;;17.80;99.90;;;;;;4006787;29;20190;-89
2023/08/01 05:36:18;;;;;;;18.17;4.93;;;17.90;99.90;;;;;;4006806;29;20191;-88
2023/08/01 05:38:19;;;;;;;23.10;5.32;;;18.00;99.90;;;;;;4007219;29;20202;-92
2023/08/01 05:40:20;;;;;;;21.25;4.72;;;17.90;99.90;;;;;;3992129;29;20195;-92
2023/08/01 05:42:20;;;;;;;12.45;4.55;;;17.60;99.90;;;;;;4022214;29;20197;-90
2023/08/01 05:44:21;;;;;;;20.40;4.88;;;17.60;99.90;;;;;;3992046;29;20190;-91
2023/08/01 05:46:22;;;;;;;13.50;4.65;;;17.70;99.90;;;;;;4022196;29;20269;-91
2023/08/01 05:48:23;;;;;;;25.00;4.75;;;17.70;99.90;;;;;;3991952;29;20191;-90
2023/08/01 05:50:24;;;;;;;17.63;5.22;;;17.70;99.90;;;;;;4022283;29;20213;-92
2023/08/01 05:52:25;;;;;;;14.40;4.63;;;18.00;99.90;;;;;;3992300;29;20271;-91
2023/08/01 05:54:26;;;;;;;19.77;4.90;;;18.30;99.90;;;;;;4022289;29;20250;-90
2023/08/01 05:56:27;;;;;;;24.73;4.43;;;18.00;99.90;;;;;;3991847;29;20184;-92
2023/08/01 05:58:27;;;;;;;23.40;5.30;;;18.10;99.90;;;;;;3991964;29;20211;-93
2023/08/01 06:00:30;;;;;;;18.50;5.03;;;18.20;99.90;;;;;;4021895;29;20347;-91
2023/08/01 06:02:31;;;;;;;17.48;5.20;;;18.20;99.90;;;;;;3991994;29;20192;-92
2023/08/01 06:04:32;;;;;;;13.82;4.80;;;18.40;99.90;;;;;;3991882;29;20287;-92
2023/08/01 06:06:32;;;;;;;15.82;5.07;;;18.30;99.90;;;;;;4006505;29;20218;-90
2023/08/01 06:08:33;;;;;;;14.57;4.50;;;18.50;99.90;;;;;;4006729;29;20195;-94
2023/08/01 06:10:37;;;;;;;17.02;4.35;;;18.40;99.90;;;;;;4006813;29;20211;-92
2023/08/01 06:12:38;;;;;;;13.70;4.65;;;18.40;99.90;;;;;;4007038;29;20645;-92
2023/08/01 06:14:39;;;;;;;16.25;4.63;;;18.30;99.90;;;;;;4006700;29;20220;-93
2023/08/01 06:16:39;;;;;;;19.52;4.95;;;18.20;99.90;;;;;;4007193;29;20186;-90
2023/08/01 06:18:40;;;;;;;15.98;4.55;;;18.00;99.90;;;;;;4006853;29;20230;-91
2023/08/01 06:20:41;;;;;;;16.25;4.57;;;18.00;99.90;;;;;;4006787;29;20195;-91
2023/08/01 06:22:42;;;;;;;17.40;4.97;;;17.90;99.90;;;;;;4006661;29;20248;-93
2023/08/01 06:24:43;;;;;;;15.65;4.35;;;17.80;99.90;;;;;;4006660;29;20656;-92
2023/08/01 06:26:44;;;;;;;15.40;4.75;;;17.70;99.90;;;;;;4006624;29;20281;-91
2023/08/01 06:28:45;;;;;;;18.42;4.97;;;17.80;99.90;;;;;;4006604;29;20191;-91
2023/08/01 06:30:46;;;;;;;16.08;4.20;;;17.80;99.90;;;;;;4006538;29;20279;-91
2023/08/01 06:32:46;;;;;;;15.73;4.65;;;18.10;99.90;;;;;;4006623;29;20661;-92
2023/08/01 06:34:47;;;;;;;18.55;5.00;;;18.00;99.90;;;;;;4006745;29;20235;-92
2023/08/01 06:36:48;;;;;;;21.00;4.70;;;18.20;99.90;;;;;;4006639;29;20246;-91
2023/08/01 06:38:49;;;;;;;21.35;4.95;;;18.30;99.90;;;;;;3991374;29;20661;-91
2023/08/01 06:40:50;;;;;;;12.15;4.47;;;18.40;99.90;;;;;;3991550;29;20184;-91
2023/08/01 06:42:50;;;;;;;22.65;5.30;;;18.50;99.90;;;;;;3991303;29;20208;-91
2023/08/01 06:44:51;;;;;;;18.83;5.05;;;18.60;99.90;;;;;;3991620;29;20752;-91
2023/08/01 06:46:52;;;;;;;15.55;5.03;;;18.80;99.90;;;;;;3991614;29;20286;-92
2023/08/01 06:48:53;;;;;;;18.25;4.60;;;19.00;99.90;;;;;;4021711;29;20186;-92
2023/08/01 06:50:53;;;;;;;17.80;5.05;;;19.10;99.90;;;;;;3992641;29;20276;-92
2023/08/01 06:52:54;;;;;;;17.30;4.68;;;19.30;99.90;;;;;;4024556;29;20186;-91
2023/08/01 06:54:55;;;;;;;16.00;4.32;;;19.50;99.90;;;;;;3994183;29;20280;-92
2023/08/01 06:56:56;;;;;;;13.88;4.50;;;19.50;99.90;;;;;;4024741;29;20190;-91
2023/08/01 06:58:56;;;;;;;22.17;4.95;;;19.40;99.90;;;;;;3994284;29;20232;-91
2023/08/01 07:00:57;;;;;;;14.38;4.40;;;19.30;99.90;;;;;;4024528;29;20193;-92
2023/08/01 07:02:58;;;;;;;17.98;4.90;;;19.30;99.90;;;;;;3994163;29;20206;-91
2023/08/01 07:04:59;;;;;;;17.40;4.90;;;19.50;99.90;;;;;;4008949;29;20191;-92
2023/08/01 07:07:00;;;;;;;14.98;4.35;;;19.50;99.90;;;;;;4024330;29;20197;-91
2023/08/01 07:09:01;;;;;;;16.75;4.18;;;19.40;99.90;;;;;;3994119;29;20634;-91
2023/08/01 07:11:02;;;;;;;17.05;4.38;;;19.70;99.90;;;;;;4024216;29;20620;-91
2023/08/01 07:13:04;;;;;;;18.35;4.95;;;19.80;99.90;;;;;;3993916;29;20239;-91
2023/08/01 07:15:05;;;;;;;19.15;4.30;;;19.80;99.90;;;;;;4009006;29;20274;-91
2023/08/01 07:17:06;;;;;;;13.25;3.88;;;19.70;99.90;;;;;;4008943;29;20283;-91
2023/08/01 07:19:07;;;;;;;13.68;4.53;;;19.80;99.90;;;;;;4009083;29;20680;-90
2023/08/01 07:21:07;;;;;;;17.98;4.50;;;19.80;99.90;;;;;;4008792;29;20186;-91
2023/08/01 07:23:08;;;;;;;19.70;4.07;;;19.70;99.90;;;;;;4024186;29;20209;-90
2023/08/01 07:25:09;;;;;;;18.60;4.47;;;19.80;99.90;;;;;;3993837;29;20211;-90
2023/08/01 07:27:11;;;;;;;13.13;3.80;;;19.90;99.90;;;;;;4023994;29;20201;-92
2023/08/01 07:29:15;;;;;;;19.88;4.78;;;19.90;99.90;;;;;;3993622;29;20207;-91
2023/08/01 07:31:16;;;;;;;11.35;3.50;;;20.80;99.90;;;;;;4008599;29;20198;-92
2023/08/01 07:33:17;;;;;;;20.50;4.03;;;21.40;99.90;;;;;;4008740;29;20191;-93
2023/08/01 07:35:19;;;;;;;17.63;3.75;;;21.90;99.90;;;;;;4008518;29;20183;-92
2023/08/01 07:37:20;;;;;;;13.65;4.13;;;22.10;99.90;;;;;;4008469;29;20195;-90
2023/08/01 07:39:20;;;;;;;14.25;3.80;;;21.80;99.90;;;;;;4008593;29;20260;-91
2023/08/01 07:41:21;;;;;;;13.93;4.22;;;21.50;99.90;;;;;;4008359;29;20238;-92
2023/08/01 07:43:23;;;;;;;12.40;3.45;;;21.00;99.90;;;;;;4008839;29;20232;-91
2023/08/01 07:45:24;;;;;;;16.85;4.10;;;21.30;99.90;;;;;;4008734;29;20301;-92
2023/08/01 07:47:25;;;;;;;15.93;4.10;;;22.50;99.90;;;;;;4008657;29;20607;-91
2023/08/01 07:49:26;;;;;;;14.82;3.80;;;23.80;99.90;;;;;;4008584;29;20575;-92
2023/08/01 07:51:26;;;;;;;16.98;4.18;;;24.70;99.90;;;;;;4023712;29;20198;-93
2023/08/01 07:53:27;;;;;;;13.38;3.55;;;25.40;99.90;;;;;;3993239;29;20191;-91
2023/08/01 07:55:28;;;;;;;13.85;3.53;;;25.50;99.90;;;;;;4023581;29;20193;-92
2023/08/01 07:57:29;;;;;;;13.23;4.28;;;25.20;99.90;;;;;;3993823;29;20196;-93
2023/08/01 07:59:29;;;;;;;9.68;3.38;;;24.20;99.90;;;;;;4023422;29;20748;-93
2023/08/01 08:01:30;;;;;;;12.05;3.20;;;23.60;99.90;;;;;;3992994;29;20252;-91
2023/08/01 08:03:31;;;;;;;13.65;3.70;;;23.00;99.90;;;;;;4023440;29;20703;-92
2023/08/01 08:05:32;;;;;;;12.40;3.67;;;22.60;99.90;;;;;;3993324;29;20275;-91
2023/08/01 08:07:33;;;;;;;13.68;3.55;;;22.30;99.90;;;;;;4023552;29;20190;-91
2023/08/01 08:09:33;;;;;;;11.93;3.40;;;22.70;99.90;;;;;;3993039;29;20272;-91
2023/08/01 08:11:34;;;;;;;13.25;3.20;;;22.90;99.90;;;;;;4023459;29;20186;-90
2023/08/01 08:13:35;;;;;;;14.38;3.92;;;23.00;99.90;;;;;;3992992;29;20198;-91
2023/08/01 08:15:35;;;;;;;13.35;3.40;;;22.90;99.90;;;;;;4023600;29;20194;-91
2023/08/01 08:17:36;;;;;;;14.32;2.85;;;23.00;99.90;;;;;;3993108;29;20183;-91
2023/08/01 08:19:37;;;;;;;10.90;3.30;;;23.00;99.90;;;;;;3993128;29;20227;-92
2023/08/01 08:21:38;;;;;;;14.38;3.67;;;23.60;99.90;;;;;;4023287;29;20182;-92
2023/08/01 08:23:39;;;;;;;11.98;2.92;;;23.90;99.90;;;;;;3993053;29;20590;-91
2023/08/01 08:25:41;;;;;;;12.63;2.97;;;25.00;99.90;;;;;;4023310;29;20265;-92
2023/08/01 08:27:41;;;;;;;10.98;2.95;;;25.90;99.90;;;;;;4007964;29;20175;-93
2023/08/01 08:29:42;;;;;;;11.52;3.13;;;26.50;99.90;;;;;;4022885;29;20714;-94
2023/08/01 08:31:43;;;;;;;12.90;3.22;;;26.40;99.90;;;;;;3992796;29;20199;-91
2023/08/01 08:33:44;;;;;;;12.18;3.22;;;25.50;99.90;;;;;;4023191;29;20281;-90
2023/08/01 08:35:44;;;;;;;12.93;3.00;;;24.80;99.90;;;;;;3992735;29;20179;-92
2023/08/01 08:37:45;;;;;;;10.57;2.95;;;24.90;99.90;;;;;;4023398;29;20214;-92
2023/08/01 08:39:47;;;;;;;9.90;2.50;;;25.10;99.90;;;;;;3993129;29;20207;-92
2023/08/01 08:41:51;;;;;;;14.88;3.05;;;25.30;99.90;;;;;;4008309;29;20190;-91
2023/08/01 08:43:59;;;;;;;14.73;2.53;;;25.60;99.90;;;;;;3992691;29;20266;-92
2023/08/01 08:46:02;;;;;;;13.63;2.45;;;26.20;99.90;;;;;;3992452;29;20233;-92
2023/08/01 08:48:12;;;;;;;7.53;2.55;;;26.70;99.90;;;;;;4007742;29;20181;-91
2023/08/01 08:50:13;;;;;;;11.75;2.47;;;27.10;99.90;;;;;;3992329;29;20649;-90
2023/08/01 08:52:15;;;;;;;9.18;2.58;;;26.10;99.90;;;;;;3992324;29;20199;-92
2023/08/01 08:54:16;;;;;;;15.57;2.92;;;25.70;99.90;;;;;;4007622;29;20630;-93
2023/08/01 08:56:18;;;;;;;10.70;2.80;;;25.10;99.90;;;;;;3992765;29;20190;-92
2023/08/01 08:58:19;;;;;;;9.23;2.42;;;25.10;99.90;;;;;;4007328;29;20277;-92
2023/08/01 09:00:21;;;;;;;7.65;2.05;;;26.20;99.90;;;;;;4007375;29;20316;-92
2023/08/01 09:02:23;;;;;;;14.40;2.58;;;26.20;99.90;;;;;;4007434;29;20182;-92
2023/08/01 09:04:24;;;;;;;11.13;2.60;;;26.80;99.90;;;;;;4007344;29;20187;-89
2023/08/01 09:06:48;;;;;;;9.65;2.25;;;27.10;99.90;;;;;;3992543;29;20237;-92
2023/08/01 09:09:01;;;;;;;8.90;2.13;;;27.60;99.90;;;;;;4006626;29;20553;-91
2023/08/01 09:11:03;;;;;;;17.63;2.35;;;27.40;99.90;;;;;;4007073;29;20186;-92
2023/08/01 09:13:03;;;;;;;8.75;2.60;;;27.20;99.90;;;;;;4007044;29;20218;-94
2023/08/01 09:15:05;;;;;;;7.43;2.30;;;26.80;99.90;;;;;;4006699;29;20199;-91
2023/08/01 09:17:09;;;;;;;6.90;2.00;;;26.50;99.90;;;;;;4007308;29;20282;-91
2023/08/01 09:19:12;;;;;;;6.00;2.10;;;26.60;99.90;;;;;;4007119;29;20764;-93
2023/08/01 09:21:13;;;;;;;7.57;2.45;;;26.20;99.90;;;;;;4006989;29;20187;-92
2023/08/01 09:23:16;;;;;;;9.43;2.33;;;25.90;99.90;;;;;;4007557;29;20195;-92
2023/08/01 09:25:17;;;;;;;10.05;2.08;;;25.90;99.90;;;;;;4007222;29;20219;-93
2023/08/01 09:27:18;;;;;;;9.52;2.30;;;25.20;99.90;;;;;;4007089;29;20231;-91
2023/08/01 09:29:20;;;;;;;7.00;2.13;;;25.20;99.90;;;;;;4007168;29;20198;-92
2023/08/01 09:31:29;;;;;;;9.77;2.42;;;25.20;99.90;;;;;;4007085;29;20198;-92
2023/08/01 09:33:41;;;;;;;7.55;2.60;;;25.00;99.90;;;;;;4006812;29;20244;-91
2023/08/01 09:35:44;;;;;;;11.25;2.42;;;24.80;99.90;;;;;;3992165;29;20373;-93
2023/08/01 09:37:44;;;;;;;9.55;2.55;;;24.90;99.90;;;;;;4006906;29;20183;-91
2023/08/01 09:39:54;;;;;;;8.68;2.53;;;24.50;99.90;;;;;;4006710;29;20258;-92
2023/08/01 09:42:00;;;;;;;11.10;2.60;;;24.50;99.90;;;;;;4006851;29;20728;-91
2023/08/01 09:44:01;;;;;;;9.90;2.58;;;25.00;99.90;;;;;;4007040;29;20669;-93
2023/08/01 09:46:03;;;;;;;11.73;2.35;;;25.10;99.90;;;;;;4022169;29;20254;-93
2023/08/01 09:48:05;;;;;;;7.72;2.10;;;24.90;99.90;;;;;;4006803;29;20235;-92
2023/08/01 09:50:06;;;;;;;13.57;2.40;;;24.80;99.90;;;;;;3991966;29;20215;-93
2023/08/01 09:52:07;;;;;;;10.77;2.00;;;24.90;99.90;;;;;;3992070;29;20543;-91
2023/08/01 09:54:08;;;;;;;7.28;2.15;;;24.50;99.90;;;;;;4006985;29;20187;-92
2023/08/01 09:56:11;;;;;;;8.27;2.28;;;24.50;99.90;;;;;;4006849;29;20222;-92
2023/08/01 09:58:13;;;;;;;6.85;1.73;;;24.60;99.90;;;;;;3991905;29;20207;-92
2023/08/01 10:00:14;;;;;;;10.18;2.35;;;25.00;99.90;;;;;;4006696;29;20297;-90
2023/08/01 10:02:19;;;;;;;8.73;2.30;;;25.20;99.90;;;;;;4006920;29;20607;-91
2023/08/01 10:04:30;;;;;;;7.43;2.15;;;24.90;99.90;;;;;;4006892;29;20201;-92
2023/08/01 10:06:35;;;;;;;7.50;1.90;;;24.90;99.90;;;;;;3991663;29;20223;-93
2023/08/01 10:08:36;;;;;;;6.30;1.90;;;25.60;99.90;;;;;;3991803;29;20191;-92
2023/08/01 10:10:37;;;;;;;7.13;2.42;;;25.90;99.90;;;;;;3991702;29;20575;-93
2023/08/01 10:12:40;;;;;;;7.03;2.10;;;25.90;99.90;;;;;;3991793;29;20198;-92
2023/08/01 10:14:41;;;;;;;6.88;1.70;;;26.10;99.90;;;;;;4006575;29;20184;-93
2023/08/01 10:16:43;;;;;;;8.23;2.25;;;26.30;99.90;;;;;;4006715;29;20197;-93
2023/08/01 10:18:44;;;;;;;10.50;1.95;;;26.10;99.90;;;;;;4006892;29;20239;-92
2023/08/01 10:20:45;;;;;;;8.23;1.65;;;25.50;99.90;;;;;;4006439;29;20275;-92
2023/08/01 10:22:48;;;;;;;6.88;1.77;;;25.80;99.90;;;;;;4006593;29;20235;-92
2023/08/01 10:24:50;;;;;;;8.40;1.90;;;25.80;99.90;;;;;;4006643;29;20278;-93